createdAt,value
2022-12-23T00:02:21.234Z,100252.38
2022-12-23T00:04:47.730Z,100265.28
2022-12-23T00:07:14.148Z,100266.25
2022-12-23T00:09:40.676Z,100268.19
2022-12-23T00:12:26.026Z,100271.16
2022-12-23T00:15:07.346Z,100284.91
2022-12-23T00:17:40.880Z,100289.88
2022-12-23T00:20:08.817Z,100293.13
2022-12-23T00:22:54.174Z,100302.66
2022-12-23T00:25:20.601Z,100305.13
2022-12-23T00:28:01.315Z,100298.38
2022-12-23T00:30:28.685Z,100309.47
2022-12-23T00:32:55.101Z,100309.03
2022-12-23T00:35:21.527Z,100314.56
2022-12-23T00:37:48.034Z,100319.34
2022-12-23T00:40:33.870Z,100306.94
2022-12-23T00:43:01.194Z,100304.50
2022-12-23T00:45:27.651Z,100302.88
2022-12-23T00:48:12.739Z,100320.88
2022-12-23T00:50:40.048Z,100325.38
2022-12-23T00:53:06.994Z,100322.69
2022-12-23T00:55:33.423Z,100336.97
2022-12-23T00:57:59.846Z,100348.47
2022-12-23T01:00:45.114Z,100359.91
2022-12-23T01:03:31.783Z,100355.53
2022-12-23T01:05:59.735Z,100352.19
2022-12-23T01:08:27.211Z,100343.97
2022-12-23T01:10:53.875Z,100348.28
2022-12-23T01:13:20.745Z,100352.78
2022-12-23T01:15:47.262Z,100352.88
2022-12-23T01:18:13.778Z,100360.91
2022-12-23T01:20:40.794Z,100358.34
2022-12-23T01:23:07.387Z,100370.09
2022-12-23T01:25:33.806Z,100372.69
2022-12-23T01:28:00.321Z,100370.97
2022-12-23T01:30:26.827Z,100376.34
2022-12-23T01:32:53.323Z,100379.81
2022-12-23T01:35:19.795Z,100378.91
2022-12-23T01:37:46.227Z,100381.50
2022-12-23T01:40:12.704Z,100384.19
2022-12-23T01:42:45.188Z,100391.19
2022-12-23T01:45:24.823Z,100392.09
2022-12-23T01:48:10.100Z,100397.47
2022-12-23T01:50:41.100Z,100399.38
2022-12-23T01:53:13.384Z,100404.72
2022-12-23T01:55:59.642Z,100416.31
2022-12-23T01:58:39.284Z,100412.84
2022-12-23T02:01:25.916Z,100419.06
2022-12-23T02:03:56.675Z,100412.84
2022-12-23T02:06:46.471Z,100426.25
2022-12-23T02:09:20.733Z,100427.13
2022-12-23T02:12:21.541Z,100430.78
2022-12-23T02:15:09.736Z,100427.13
2022-12-23T02:17:54.213Z,100437.84
2022-12-23T02:20:35.801Z,100444.00
2022-12-23T02:23:33.021Z,100444.00
2022-12-23T02:26:27.439Z,100444.84
2022-12-23T02:29:18.784Z,100447.47
2022-12-23T02:32:11.890Z,100451.13
2022-12-23T02:34:56.015Z,100452.84
2022-12-23T02:38:00.624Z,100464.44
2022-12-23T02:40:38.505Z,100456.47
2022-12-23T02:43:26.102Z,100461.84
2022-12-23T02:46:07.926Z,100461.84
2022-12-23T02:48:34.297Z,100470.75
2022-12-23T02:51:02.171Z,100473.41
2022-12-23T02:53:35.619Z,100472.44
2022-12-23T02:56:05.822Z,100476.94
2022-12-23T02:58:37.634Z,100481.44
2022-12-23T03:01:07.084Z,100485.03
2022-12-23T03:03:35.503Z,100487.72
2022-12-23T03:06:05.319Z,100484.16
2022-12-23T03:08:42.380Z,100483.31
2022-12-23T03:11:12.159Z,100477.94
2022-12-23T03:13:44.300Z,100488.69
2022-12-23T03:16:41.986Z,100486.16
2022-12-23T03:19:23.466Z,100489.69
2022-12-23T03:22:18.265Z,100488.81
2022-12-23T03:24:53.939Z,100490.72
2022-12-23T03:27:39.880Z,100493.34
2022-12-23T03:30:11.979Z,100489.88
2022-12-23T03:32:49.282Z,100491.75
2022-12-23T03:35:20.013Z,100490.91
2022-12-23T03:37:50.163Z,100492.69
2022-12-23T03:40:23.080Z,100493.66
2022-12-23T03:42:57.704Z,100496.34
2022-12-23T03:45:38.699Z,100489.31
2022-12-23T03:48:14.909Z,100496.41
2022-12-23T03:50:43.067Z,100492.00
2022-12-23T03:53:38.741Z,100488.38
2022-12-23T03:56:11.892Z,100493.81
2022-12-23T03:58:51.626Z,100495.56
2022-12-23T04:01:33.348Z,100505.31
2022-12-23T04:04:38.015Z,100507.16
2022-12-23T04:07:17.296Z,100510.75
2022-12-23T04:09:44.747Z,100516.13
2022-12-23T04:12:11.562Z,100521.50
2022-12-23T04:14:44.129Z,100519.78
2022-12-23T04:17:10.594Z,100525.13
2022-12-23T04:19:37.016Z,100527.03
2022-12-23T04:22:03.444Z,100525.28
2022-12-23T04:24:29.868Z,100527.09
2022-12-23T04:26:56.308Z,100522.78
2022-12-23T04:29:22.676Z,100524.59
2022-12-23T04:31:49.189Z,100529.19
2022-12-23T04:34:15.752Z,100525.59
2022-12-23T04:36:42.195Z,100534.63
2022-12-23T04:39:09.410Z,100531.94
2022-12-23T04:41:35.778Z,100522.31
2022-12-23T04:44:02.156Z,100525.94
2022-12-23T04:46:28.575Z,100520.75
2022-12-23T04:48:54.999Z,100525.13
2022-12-23T04:51:21.469Z,100527.81
2022-12-23T04:53:47.881Z,100526.09
2022-12-23T04:56:14.298Z,100517.09
2022-12-23T04:58:40.806Z,100504.66
2022-12-23T05:01:09.601Z,100504.66
2022-12-23T05:03:37.624Z,100494.84
2022-12-23T05:06:04.446Z,100490.47
2022-12-23T05:08:31.000Z,100501.09
2022-12-23T05:10:57.431Z,100504.66
2022-12-23T05:13:24.326Z,100517.09
2022-12-23T05:15:53.737Z,100502.75
2022-12-23T05:18:21.360Z,100518.84
2022-12-23T05:20:49.118Z,100520.56
2022-12-23T05:23:15.551Z,100519.72
2022-12-23T05:25:42.014Z,100522.38
2022-12-23T05:28:09.523Z,100532.25
2022-12-23T05:30:36.425Z,100538.41
2022-12-23T05:33:02.842Z,100542.88
2022-12-23T05:35:29.272Z,100543.78
2022-12-23T05:37:56.902Z,100541.88
2022-12-23T05:40:25.315Z,100542.81
2022-12-23T05:42:55.929Z,100543.66
2022-12-23T05:45:22.883Z,100543.66
2022-12-23T05:47:49.311Z,100545.41
2022-12-23T05:50:15.738Z,100539.19
2022-12-23T05:52:42.204Z,100543.66
2022-12-23T05:55:09.136Z,100533.84
2022-12-23T05:57:35.578Z,100538.22
2022-12-23T06:00:03.441Z,100538.22
2022-12-23T06:02:30.017Z,100532.88
2022-12-23T06:04:56.531Z,100538.16
2022-12-23T06:07:22.900Z,100538.16
2022-12-23T06:09:49.303Z,100534.63
2022-12-23T06:12:15.676Z,100538.09
2022-12-23T06:14:42.017Z,100537.22
2022-12-23T06:17:08.413Z,100540.69
2022-12-23T06:19:34.815Z,100550.53
2022-12-23T06:22:01.230Z,100549.59
2022-12-23T06:24:27.670Z,100549.59
2022-12-23T06:26:57.195Z,100547.78
2022-12-23T06:29:24.305Z,100557.66
2022-12-23T06:31:50.814Z,100558.59
2022-12-23T06:34:17.350Z,100554.09
2022-12-23T06:36:43.771Z,100554.19
2022-12-23T06:39:11.184Z,100566.63
2022-12-23T06:41:37.626Z,100567.53
2022-12-23T06:44:04.272Z,100564.72
2022-12-23T06:46:30.804Z,100561.13
2022-12-23T06:48:57.306Z,100562.06
2022-12-23T06:51:23.763Z,100554.97
2022-12-23T06:53:50.193Z,100554.97
2022-12-23T06:56:16.593Z,100555.91
2022-12-23T06:58:42.938Z,100557.66
2022-12-23T07:01:10.365Z,100565.69
2022-12-23T07:03:36.923Z,100567.53
2022-12-23T07:06:03.799Z,100574.66
2022-12-23T07:08:30.227Z,100570.28
2022-12-23T07:11:00.593Z,100566.63
2022-12-23T07:13:27.657Z,100567.59
2022-12-23T07:15:54.130Z,100564.03
2022-12-23T07:18:22.890Z,100566.72
2022-12-23T07:20:50.085Z,100568.53
2022-12-23T07:23:16.808Z,100561.44
2022-12-23T07:25:43.281Z,100560.53
2022-12-23T07:28:09.747Z,100560.66
2022-12-23T07:30:36.691Z,100566.94
2022-12-23T07:33:03.098Z,100572.31
2022-12-23T07:35:29.568Z,100573.28
2022-12-23T07:37:56.518Z,100569.56
2022-12-23T07:40:24.301Z,100565.13
2022-12-23T07:42:54.839Z,100567.81
2022-12-23T07:45:21.428Z,100566.81
2022-12-23T07:47:47.926Z,100555.19
2022-12-23T07:50:14.539Z,100558.69
2022-12-23T07:52:41.009Z,100552.59
2022-12-23T07:55:07.743Z,100542.66
2022-12-23T07:57:37.912Z,100539.97
2022-12-23T08:00:10.523Z,100538.31
2022-12-23T08:02:37.295Z,100544.56
2022-12-23T08:05:04.123Z,100553.47
2022-12-23T08:07:30.596Z,100547.06
2022-12-23T08:09:57.040Z,100549.75
2022-12-23T08:12:23.598Z,100540.78
2022-12-23T08:14:52.466Z,100542.59
2022-12-23T08:17:21.350Z,100534.44
2022-12-23T08:19:48.732Z,100527.34
2022-12-23T08:22:15.609Z,100530.91
2022-12-23T08:24:42.034Z,100533.59
2022-12-23T08:27:08.434Z,100534.44
2022-12-23T08:29:36.604Z,100536.19
2022-12-23T08:32:03.262Z,100532.66
2022-12-23T08:34:29.729Z,100526.41
2022-12-23T08:36:56.089Z,100539.81
2022-12-23T08:39:22.864Z,100530.81
2022-12-23T08:41:49.448Z,100537.91
2022-12-23T08:44:16.882Z,100532.53
2022-12-23T08:46:44.570Z,100530.66
2022-12-23T08:49:11.523Z,100515.44
2022-12-23T08:51:38.846Z,100502.97
2022-12-23T08:54:06.153Z,100502.91
2022-12-23T08:56:35.723Z,100494.66
2022-12-23T08:59:02.762Z,100498.13
2022-12-23T09:01:33.231Z,100490.91
2022-12-23T09:04:03.610Z,100481.97
2022-12-23T09:06:34.299Z,100487.34
2022-12-23T09:09:00.661Z,100472.91
2022-12-23T09:11:28.717Z,100470.22
2022-12-23T09:13:55.983Z,100466.66
2022-12-23T09:16:23.129Z,100473.91
2022-12-23T09:18:49.638Z,100469.44
2022-12-23T09:21:19.824Z,100481.91
2022-12-23T09:23:46.994Z,100474.63
2022-12-23T09:26:22.939Z,100478.09
2022-12-23T09:28:49.620Z,100468.22
2022-12-23T09:31:16.419Z,100469.97
2022-12-23T09:33:43.009Z,100472.66
2022-12-23T09:36:09.564Z,100469.25
2022-12-23T09:38:36.263Z,100462.19
2022-12-23T09:41:26.080Z,100453.16
2022-12-23T09:44:10.546Z,100460.28
2022-12-23T09:46:43.940Z,100472.91
2022-12-23T09:49:13.384Z,100467.38
2022-12-23T09:51:39.884Z,100464.69
2022-12-23T09:54:18.947Z,100455.78
2022-12-23T09:56:52.212Z,100447.88
2022-12-23T09:59:33.778Z,100453.09
2022-12-23T10:02:11.585Z,100454.91
2022-12-23T10:04:52.667Z,100444.34
2022-12-23T10:07:27.165Z,100442.50
2022-12-23T10:09:56.274Z,100424.63
2022-12-23T10:12:39.474Z,100426.53
2022-12-23T10:15:19.144Z,100437.25
2022-12-23T10:17:46.512Z,100422.88
2022-12-23T10:20:19.473Z,100424.78
2022-12-23T10:22:47.233Z,100423.91
2022-12-23T10:25:35.196Z,100423.03
2022-12-23T10:28:01.646Z,100413.13
2022-12-23T10:30:57.420Z,100408.53
2022-12-23T10:33:30.473Z,100408.69
2022-12-23T10:36:34.640Z,100387.28
2022-12-23T10:39:24.761Z,100388.16
2022-12-23T10:42:24.915Z,100386.38
2022-12-23T10:45:19.355Z,100383.59
2022-12-23T10:48:18.142Z,100378.25
2022-12-23T10:50:55.580Z,100369.22
2022-12-23T10:53:34.615Z,100363.00
2022-12-23T10:56:04.291Z,100366.53
2022-12-23T10:58:31.161Z,100357.63
2022-12-23T11:00:59.842Z,100352.28
2022-12-23T11:03:31.232Z,100348.63
2022-12-23T11:05:58.779Z,100344.16
2022-12-23T11:08:27.420Z,100342.41
2022-12-23T11:10:55.664Z,100334.19
2022-12-23T11:13:40.475Z,100327.88
2022-12-23T11:16:28.027Z,100314.38
2022-12-23T11:18:59.910Z,100303.56
2022-12-23T11:21:28.008Z,100300.88
2022-12-23T11:24:08.095Z,100289.19
2022-12-23T11:26:35.568Z,100294.53
2022-12-23T11:29:09.853Z,100297.19
2022-12-23T11:31:36.931Z,100293.63
2022-12-23T11:34:13.853Z,100280.22
2022-12-23T11:36:41.171Z,100283.75
2022-12-23T11:39:10.642Z,100277.53
2022-12-23T11:41:40.198Z,100265.88
2022-12-23T11:44:18.053Z,100264.13
2022-12-23T11:46:44.589Z,100263.16
2022-12-23T11:49:20.127Z,100255.16
2022-12-23T11:51:59.955Z,100243.56
2022-12-23T11:54:26.573Z,100242.66
2022-12-23T11:56:54.777Z,100244.53
2022-12-23T11:59:33.846Z,100231.13
2022-12-23T12:02:03.487Z,100225.75
2022-12-23T12:04:34.161Z,100222.19
2022-12-23T12:07:03.096Z,100216.94
2022-12-23T12:09:31.754Z,100212.34
2022-12-23T12:12:13.944Z,100210.59
2022-12-23T12:14:45.270Z,100199.09
2022-12-23T12:17:22.322Z,100194.59
2022-12-23T12:20:31.221Z,100193.72
2022-12-23T12:23:02.311Z,100194.59
2022-12-23T12:25:51.976Z,100188.28
2022-12-23T12:28:38.943Z,100189.22
2022-12-23T12:31:23.425Z,100182.06
2022-12-23T12:34:11.118Z,100174.00
2022-12-23T12:36:58.587Z,100170.34
2022-12-23T12:39:34.067Z,100178.41
2022-12-23T12:42:11.540Z,100168.66
2022-12-23T12:44:47.878Z,100160.59
2022-12-23T12:50:17.898Z,100148.03
2022-12-23T12:52:44.498Z,100148.91
2022-12-23T12:55:26.050Z,100134.63
2022-12-23T12:57:52.477Z,100139.03
2022-12-23T13:00:22.679Z,100131.75
2022-12-23T13:02:59.368Z,100129.19
2022-12-23T13:05:48.450Z,100131.94
2022-12-23T13:08:36.021Z,100117.69
2022-12-23T13:11:45.128Z,100123.97
2022-12-23T13:14:42.427Z,100120.53
2022-12-23T13:17:25.710Z,100118.81
2022-12-23T13:20:12.550Z,100114.38
2022-12-23T13:22:39.856Z,100106.44
2022-12-23T13:25:22.794Z,100108.41
2022-12-23T13:27:57.106Z,100101.34
2022-12-23T13:30:26.953Z,100106.72
2022-12-23T13:32:56.020Z,100101.44
2022-12-23T13:35:25.468Z,100099.59
2022-12-23T13:38:40.085Z,100099.59
2022-12-23T13:41:21.343Z,100100.50
2022-12-23T13:43:53.591Z,100095.13
2022-12-23T13:46:54.459Z,100089.75
2022-12-23T13:49:51.881Z,100087.16
2022-12-23T13:52:31.547Z,100087.16
2022-12-23T13:55:35.246Z,100091.56
2022-12-23T13:58:13.392Z,100090.63
2022-12-23T14:00:39.857Z,100085.06
2022-12-23T14:03:19.250Z,100080.56
2022-12-23T14:05:50.781Z,100079.69
2022-12-23T14:08:20.078Z,100080.56
2022-12-23T14:10:51.764Z,100075.13
2022-12-23T14:13:19.179Z,100070.53
2022-12-23T14:15:53.228Z,100074.00
2022-12-23T14:18:59.772Z,100064.97
2022-12-23T14:22:00.098Z,100057.78
2022-12-23T14:24:51.902Z,100048.03
2022-12-23T14:27:39.307Z,100049.72
2022-12-23T14:30:10.435Z,100045.25
2022-12-23T14:32:50.472Z,100037.19
2022-12-23T14:35:19.370Z,100034.53
2022-12-23T14:38:14.582Z,100030.88
2022-12-23T14:40:50.548Z,100030.78
2022-12-23T14:43:23.223Z,100031.63
2022-12-23T14:45:54.537Z,100035.13
2022-12-23T14:48:36.057Z,100032.44
2022-12-23T14:51:22.941Z,100037.81
2022-12-23T14:53:52.465Z,100035.03
2022-12-23T14:56:18.843Z,100041.25
2022-12-23T14:58:51.657Z,100037.63
2022-12-23T15:01:33.103Z,100035.88
2022-12-23T15:04:25.536Z,100028.72
2022-12-23T15:07:01.768Z,100023.44
2022-12-23T15:09:31.307Z,100014.63
2022-12-23T15:12:01.277Z,100011.16
2022-12-23T15:14:32.503Z,100012.09
2022-12-23T15:16:58.971Z,100019.38
2022-12-23T15:19:27.656Z,100015.91
2022-12-23T15:22:20.607Z,100012.47
2022-12-23T15:24:50.438Z,100015.06
2022-12-23T15:27:27.193Z,100020.50
2022-12-23T15:29:55.156Z,100021.38
2022-12-23T15:32:23.960Z,100021.47
2022-12-23T15:34:52.178Z,100031.41
2022-12-23T15:37:24.837Z,100031.41
2022-12-23T15:39:57.208Z,100031.41
2022-12-23T15:42:38.317Z,100029.69
2022-12-23T15:45:23.099Z,100036.97
2022-12-23T15:47:50.466Z,100038.69
2022-12-23T15:50:18.302Z,100034.28
2022-12-23T15:52:47.305Z,100029.00
2022-12-23T15:55:27.770Z,100030.00
2022-12-23T15:57:54.565Z,100028.31
2022-12-23T16:00:25.040Z,100025.75
2022-12-23T16:03:02.709Z,100017.81
2022-12-23T16:05:32.688Z,100016.06
2022-12-23T16:08:28.564Z,100024.88
2022-12-23T16:10:55.871Z,100018.66
2022-12-23T16:13:22.327Z,100021.25
2022-12-23T16:15:48.832Z,100018.75
2022-12-23T16:18:28.432Z,100020.56
2022-12-23T16:20:58.571Z,100019.72
2022-12-23T16:23:30.126Z,100019.72
2022-12-23T16:25:58.932Z,100019.72
2022-12-23T16:28:41.063Z,100027.84
2022-12-23T16:31:10.057Z,100034.91
2022-12-23T16:33:48.985Z,100041.16
2022-12-23T16:36:27.729Z,100039.25
2022-12-23T16:38:59.610Z,100042.88
2022-12-23T16:41:26.301Z,100037.50
2022-12-23T16:43:53.209Z,100049.13
2022-12-23T16:46:22.105Z,100051.91
2022-12-23T16:48:51.750Z,100059.94
2022-12-23T16:51:20.790Z,100058.13
2022-12-23T16:53:51.713Z,100063.56
2022-12-23T16:56:20.668Z,100060.97
2022-12-23T16:58:47.399Z,100068.00
2022-12-23T17:01:22.080Z,100055.53
2022-12-23T17:03:48.709Z,100052.06
2022-12-23T17:06:16.787Z,100047.66
2022-12-23T17:08:43.596Z,100045.94
2022-12-23T17:11:19.658Z,100050.34
2022-12-23T17:13:46.695Z,100046.91
2022-12-23T17:16:21.476Z,100042.47
2022-12-23T17:18:49.323Z,100038.94
2022-12-23T17:21:25.694Z,100039.03
2022-12-23T17:24:07.387Z,100032.88
2022-12-23T17:26:33.894Z,100022.16
2022-12-23T17:29:03.453Z,100019.47
2022-12-23T17:31:30.184Z,100016.03
2022-12-23T17:33:56.617Z,100021.41
2022-12-23T17:36:23.139Z,100028.59
2022-12-23T17:38:49.595Z,100034.81
2022-12-23T17:41:28.611Z,100036.44
2022-12-23T17:43:55.417Z,100037.31
2022-12-23T17:46:21.967Z,100027.38
2022-12-23T17:48:48.724Z,100025.53
2022-12-23T17:51:20.579Z,100025.53
2022-12-23T17:53:51.567Z,100021.03
2022-12-23T17:56:21.780Z,100024.56
2022-12-23T17:58:50.184Z,100021.88
2022-12-23T18:01:31.407Z,100024.41
2022-12-23T18:03:59.367Z,100019.88
2022-12-23T18:06:27.708Z,100028.69
2022-12-23T18:08:54.404Z,100032.22
2022-12-23T18:11:31.056Z,100035.81
2022-12-23T18:13:57.552Z,100027.75
2022-12-23T18:16:24.004Z,100021.44
2022-12-23T18:18:50.474Z,100032.16
2022-12-23T18:21:26.333Z,100035.59
2022-12-23T18:23:54.863Z,100026.63
2022-12-23T18:26:21.223Z,100015.88
2022-12-23T18:28:47.602Z,100019.50
2022-12-23T18:31:17.225Z,100025.75
2022-12-23T18:33:44.869Z,100025.75
2022-12-23T18:36:24.262Z,100024.03
2022-12-23T18:38:52.181Z,100027.69
2022-12-23T18:41:19.758Z,100024.09
2022-12-23T18:43:46.603Z,100026.78
2022-12-23T18:46:13.346Z,100025.94
2022-12-23T18:48:39.842Z,100024.19
2022-12-23T18:51:06.596Z,100027.00
2022-12-23T18:53:33.020Z,100035.88
2022-12-23T18:55:59.513Z,100032.22
2022-12-23T18:58:25.976Z,100023.34
2022-12-23T19:00:53.129Z,100024.41
2022-12-23T19:03:25.546Z,100017.22
2022-12-23T19:05:53.381Z,100030.59
2022-12-23T19:08:26.156Z,100026.09
2022-12-23T19:10:54.432Z,100035.13
2022-12-23T19:13:21.383Z,100036.81
2022-12-23T19:15:47.876Z,100037.72
2022-12-23T19:18:16.947Z,100036.75
2022-12-23T19:20:44.975Z,100036.66
2022-12-23T19:23:11.920Z,100032.16
2022-12-23T19:25:46.073Z,100036.50
2022-12-23T19:28:18.809Z,100034.66
2022-12-23T19:30:45.338Z,100045.19
2022-12-23T19:33:13.252Z,100050.56
2022-12-23T19:35:43.115Z,100054.00
2022-12-23T19:38:09.616Z,100048.47
2022-12-23T19:40:36.319Z,100049.25
2022-12-23T19:43:03.482Z,100051.00
2022-12-23T19:45:29.860Z,100048.31
2022-12-23T19:47:56.293Z,100056.16
2022-12-23T19:50:22.698Z,100054.25
2022-12-23T19:52:50.642Z,100062.28
2022-12-23T19:55:17.148Z,100057.69
2022-12-23T19:57:43.643Z,100061.34
2022-12-23T20:00:10.660Z,100063.06
2022-12-23T20:02:37.137Z,100069.28
2022-12-23T20:05:04.116Z,100071.88
2022-12-23T20:07:30.644Z,100065.75
2022-12-23T20:09:57.082Z,100061.34
2022-12-23T20:12:25.299Z,100067.38
2022-12-23T20:14:51.742Z,100065.59
2022-12-23T20:17:18.187Z,100064.78
2022-12-23T20:19:46.449Z,100080.91
2022-12-23T20:22:13.216Z,100090.75
2022-12-23T20:24:39.645Z,100086.25
2022-12-23T20:27:11.026Z,100087.97
2022-12-23T20:29:38.492Z,100091.63
2022-12-23T20:32:05.223Z,100095.25
2022-12-23T20:34:36.721Z,100105.97
2022-12-23T20:37:06.451Z,100103.22
2022-12-23T20:39:33.016Z,100119.25
2022-12-23T20:41:59.474Z,100112.97
2022-12-23T20:44:35.108Z,100118.28
2022-12-23T20:47:03.673Z,100120.16
2022-12-23T20:49:30.697Z,100125.72
2022-12-23T20:51:57.173Z,100115.84
2022-12-23T20:54:29.704Z,100128.28
2022-12-23T20:56:58.820Z,100134.63
2022-12-23T20:59:25.323Z,100131.94
2022-12-23T21:01:52.025Z,100130.19
2022-12-23T21:04:18.819Z,100136.47
2022-12-23T21:06:45.411Z,100145.44
2022-12-23T21:09:14.537Z,100145.44
2022-12-23T21:11:43.276Z,100141.91
2022-12-23T21:14:10.728Z,100142.84
2022-12-23T21:16:38.421Z,100140.06
2022-12-23T21:19:06.594Z,100144.66
2022-12-23T21:21:33.092Z,100150.81
2022-12-23T21:24:02.183Z,100150.88
2022-12-23T21:26:30.756Z,100156.16
2022-12-23T21:28:59.786Z,100151.88
2022-12-23T21:31:29.107Z,100167.97
2022-12-23T21:33:56.264Z,100174.25
2022-12-23T21:36:26.059Z,100180.50
2022-12-23T21:38:52.671Z,100183.19
2022-12-23T21:41:41.107Z,100193.03
2022-12-23T21:44:08.593Z,100189.50
2022-12-23T21:46:35.332Z,100191.25
2022-12-23T21:49:02.465Z,100193.03
2022-12-23T21:51:39.044Z,100198.69
2022-12-23T21:54:06.848Z,100213.91
2022-12-23T21:56:33.340Z,100215.63
2022-12-23T21:59:02.057Z,100221.00
2022-12-23T22:01:29.171Z,100220.91
2022-12-23T22:03:57.047Z,100222.66
2022-12-23T22:06:31.892Z,100227.84
2022-12-23T22:08:59.148Z,100236.66
2022-12-23T22:11:30.510Z,100233.03
2022-12-23T22:13:58.907Z,100238.19
2022-12-23T22:16:28.361Z,100231.97
2022-12-23T22:18:55.930Z,100235.53
2022-12-23T22:21:24.621Z,100237.34
2022-12-23T22:23:52.567Z,100245.34
2022-12-23T22:26:25.133Z,100239.88
2022-12-23T22:28:55.958Z,100248.94
2022-12-23T22:31:39.645Z,100253.03
2022-12-23T22:34:07.628Z,100248.50
2022-12-23T22:36:34.367Z,100250.78
2022-12-23T22:39:01.551Z,100257.66
2022-12-23T22:41:29.262Z,100267.97
2022-12-23T22:43:57.027Z,100259.06
2022-12-23T22:46:24.481Z,100270.13
2022-12-23T22:48:51.768Z,100264.38
2022-12-23T22:51:21.423Z,100256.03
2022-12-23T22:53:48.027Z,100273.78
2022-12-23T22:56:16.673Z,100272.63
2022-12-23T22:58:43.780Z,100269.84
2022-12-23T23:01:31.207Z,100266.88
2022-12-23T23:03:59.827Z,100283.84
2022-12-23T23:06:29.131Z,100278.13
2022-12-23T23:08:56.318Z,100282.06
2022-12-23T23:11:23.987Z,100280.22
2022-12-23T23:13:50.929Z,100291.06
2022-12-23T23:16:17.859Z,100283.97
2022-12-23T23:18:44.311Z,100293.00
2022-12-23T23:21:12.862Z,100288.88
2022-12-23T23:23:39.370Z,100297.72
2022-12-23T23:26:06.213Z,100310.97
2022-12-23T23:28:32.659Z,100319.03
2022-12-23T23:31:31.923Z,100306.34
2022-12-23T23:33:45.585Z,100309.13
2022-12-23T23:36:12.083Z,100315.19
2022-12-23T23:38:38.527Z,100320.00
2022-12-23T23:41:05.195Z,100332.69
2022-12-23T23:43:31.607Z,100334.59
2022-12-23T23:45:58.849Z,100335.16
2022-12-23T23:48:25.342Z,100344.00
2022-12-23T23:50:51.778Z,100336.13
2022-12-23T23:53:18.183Z,100346.69
2022-12-23T23:55:44.613Z,100348.59
2022-12-23T23:58:11.854Z,100346.03
